RODN

Kadena Air Base Airport

Japan
TAF AMD RODN 170256Z 1702/1806 02012KT 4800 -RA BR SCT015 OVC040 QNH3010INS TEMPO 1702/1704 3200 RA BR BKN015 BECMG 1710/1711 36012KT 9999 NSW SCT015 BKN025 QNH3012INS BECMG 1717/1718 01012KT 9999 SCT025 QNH3024INS TX17/1708Z TN09/1720Z
Issued Valid From Valid To
Jan-17 @ 02:56 UTC
(2 hours ago)
Jan-17 @ 02:00 UTC
(3 hours ago)
Jan-18 @ 06:00 UTC
(-1 days ago)
Jan-17 @ 02:00 to Jan-17 @ 10:00
TAF AMD RODN 170256Z 1702/1806 02012KT 4800 -RA BR SCT015 OVC040 QNH3010INS
Wind Visibility Clouds Conditions Readings
20° at 12 knots 4,796 meters
  • Scattered at 1,500' AGL
  • Overcast at 4,000' AGL
  • Light Rain
  • Mist
Altimeter 30.09" Hg
Pressure 1018.92 hPa
Expired Click to View Jan-17 @ 02:00 to Jan-17 @ 04:00
TEMPO 1702/1704 3200 RA BR BKN015
Visibility Clouds Conditions
3,203 meters
  • Broken at 1,500' AGL
  • Rain
  • Mist
Becoming Jan-17 @ 10:00 to Jan-17 @ 17:00
BECMG 1710/1711 36012KT 9999 NSW SCT015 BKN025 QNH3012INS
Wind Visibility Clouds Conditions Readings
360° at 12 knots 10,000+ meters
  • Scattered at 1,500' AGL
  • Broken at 2,500' AGL
Altimeter 30.12" Hg
Pressure 1019.92 hPa
Becoming Jan-17 @ 17:00 to Jan-18 @ 06:00
BECMG 1717/1718 01012KT 9999 SCT025 QNH3024INS TX17/1708Z TN09/1720Z
Wind Visibility Clouds Conditions Readings
10° at 12 knots 10,000+ meters
  • Scattered at 2,500' AGL
Altimeter 30.24" Hg
Pressure 1023.92 hPa
TAF AMD RODN 170256Z 1702/1806 02012KT 4800 -RA BR SCT015 OVC040 QNH3010INS TEMPO 1702/1704 3200 RA BR BKN015 BECMG 1710/1711 36012KT 9999 NSW SCT015 BKN025 QNH3012INS BECMG 1717/1718 01012KT 9999 SCT025 QNH3024INS TX17/1708Z TN09/1720Z
Issued Jan-17 @ 02:56 UTC
(2 hours ago)
Valid From Jan-17 @ 02:00 UTC
(3 hours ago)
Valid To Jan-18 @ 06:00 UTC
(-1 days ago)
Jan-17 @ 02:00 - Jan-17 @ 10:00
Wind Visibility
20° at 12 knots 4,796 meters
Clouds
  • Scattered at 1,500' AGL
  • Overcast at 4,000' AGL
Conditions
  • Light Rain
  • Mist
Jan-17 @ 02:00 - Jan-17 @ 04:00
Clouds
  • Broken at 1,500' AGL
Conditions
  • Rain
  • Mist
Becoming Jan-17 @ 10:00 - Jan-17 @ 17:00
Wind Visibility
360° at 12 knots 10,000+ meters
Clouds
  • Scattered at 1,500' AGL
  • Broken at 2,500' AGL
Conditions
Becoming Jan-17 @ 17:00 - Jan-18 @ 06:00
Wind Visibility
10° at 12 knots 10,000+ meters
Clouds
  • Scattered at 2,500' AGL
Conditions